Time;durP1;ratioP1;P1;durP2;ratioP2;P2;SDS_P1;SDS_P2;PMS_P1;PMS_P2;Temp;Humidity;BMP_temperature;BMP_pressure;BME280_temperature;BME280_humidity;BME280_pressure;Samples;Min_cycle;Max_cycle;Signal;HPM_P1;HPM_P2
2021/06/13 00:02:25;;;;;;;11.48;10.38;;;;;;;;;;4372858;32;20153;-77
2021/06/13 00:04:51;;;;;;;10.52;9.52;;;;;;;;;;4373030;32;20061;-77
2021/06/13 00:07:17;;;;;;;12.40;10.10;;;;;;;;;;4371353;32;20055;-77
2021/06/13 00:09:43;;;;;;;11.18;10.15;;;;;;;;;;4372737;32;20031;-76
2021/06/13 00:12:11;;;;;;;10.48;9.45;;;;;;;;;;4371489;32;20392;-77
2021/06/13 00:14:37;;;;;;;9.65;8.85;;;;;;;;;;4371177;32;20065;-77
2021/06/13 00:17:03;;;;;;;10.70;9.68;;;;;;;;;;4371474;32;20035;-77
2021/06/13 00:19:29;;;;;;;10.27;9.38;;;;;;;;;;4371430;32;20073;-77
2021/06/13 00:21:56;;;;;;;10.75;9.75;;;;;;;;;;4370426;32;20443;-80
2021/06/13 00:24:22;;;;;;;11.30;9.30;;;;;;;;;;4372424;32;20363;-77
2021/06/13 00:26:48;;;;;;;10.13;9.23;;;;;;;;;;4372369;32;20419;-77
2021/06/13 00:29:15;;;;;;;10.85;9.80;;;;;;;;;;4371052;32;20035;-77
2021/06/13 00:31:41;;;;;;;10.75;9.85;;;;;;;;;;4371391;32;20355;-77
2021/06/13 00:34:07;;;;;;;11.68;10.57;;;;;;;;;;4370783;32;20043;-79
2021/06/13 00:36:33;;;;;;;11.27;10.13;;;;;;;;;;4372682;32;20055;-77
2021/06/13 00:38:59;;;;;;;11.10;9.95;;;;;;;;;;4371382;32;20081;-76
2021/06/13 00:41:26;;;;;;;12.55;11.23;;;;;;;;;;4370761;32;20092;-76
2021/06/13 00:43:52;;;;;;;11.68;10.68;;;;;;;;;;4371216;32;20367;-77
2021/06/13 00:46:18;;;;;;;12.43;11.25;;;;;;;;;;4372559;32;20462;-76
2021/06/13 00:48:45;;;;;;;11.77;10.68;;;;;;;;;;4370769;32;20344;-77
2021/06/13 00:51:11;;;;;;;13.00;11.70;;;;;;;;;;4371456;32;20317;-77
2021/06/13 00:53:37;;;;;;;12.00;10.90;;;;;;;;;;4369265;32;20031;-77
2021/06/13 00:56:03;;;;;;;14.07;11.88;;;;;;;;;;4372363;32;20027;-77
2021/06/13 00:58:30;;;;;;;12.45;10.30;;;;;;;;;;4371044;32;20088;-77
2021/06/13 01:00:56;;;;;;;12.23;10.80;;;;;;;;;;4370947;32;20054;-77
2021/06/13 01:03:22;;;;;;;11.18;9.85;;;;;;;;;;4370869;32;20495;-76
2021/06/13 01:05:49;;;;;;;12.73;10.63;;;;;;;;;;4372419;32;20150;-77
2021/06/13 01:08:18;;;;;;;11.30;10.27;;;;;;;;;;4371922;32;20374;-77
2021/06/13 01:11:06;;;;;;;12.93;11.35;;;;;;;;;;4371061;32;20245;-76
2021/06/13 01:13:36;;;;;;;11.80;10.55;;;;;;;;;;4369530;32;20027;-79
2021/06/13 01:16:08;;;;;;;11.93;10.77;;;;;;;;;;4370537;32;20027;-77
2021/06/13 01:18:42;;;;;;;12.52;11.35;;;;;;;;;;4370752;32;20066;-77
2021/06/13 01:21:11;;;;;;;10.50;9.60;;;;;;;;;;4372046;32;20034;-78
2021/06/13 01:23:51;;;;;;;11.63;10.43;;;;;;;;;;4370569;32;20047;-77
2021/06/13 01:26:36;;;;;;;14.32;11.02;;;;;;;;;;4370980;32;20118;-77
2021/06/13 01:29:10;;;;;;;13.35;12.07;;;;;;;;;;4371764;32;20031;-77
2021/06/13 01:31:38;;;;;;;13.05;11.75;;;;;;;;;;4368989;32;20397;-77
2021/06/13 01:34:08;;;;;;;12.13;11.00;;;;;;;;;;4370423;32;20517;-77
2021/06/13 01:36:35;;;;;;;12.88;11.50;;;;;;;;;;4370459;32;20052;-76
2021/06/13 01:39:02;;;;;;;11.57;10.55;;;;;;;;;;4369667;32;20027;-77
2021/06/13 01:41:30;;;;;;;12.45;11.23;;;;;;;;;;4371246;32;20097;-77
2021/06/13 01:43:57;;;;;;;13.40;12.07;;;;;;;;;;4371375;32;20030;-78
2021/06/13 01:46:25;;;;;;;12.98;11.77;;;;;;;;;;4370396;32;20612;-77
2021/06/13 01:48:52;;;;;;;14.07;12.65;;;;;;;;;;4369823;32;20031;-77
2021/06/13 01:51:19;;;;;;;12.90;11.57;;;;;;;;;;4369854;32;20060;-77
2021/06/13 01:53:46;;;;;;;13.77;12.48;;;;;;;;;;4371279;32;20109;-77
2021/06/13 01:56:13;;;;;;;14.55;13.07;;;;;;;;;;4370917;32;20060;-77
2021/06/13 01:58:42;;;;;;;14.50;13.00;;;;;;;;;;4370466;32;20462;-78
2021/06/13 02:01:09;;;;;;;12.95;11.75;;;;;;;;;;4370002;32;20023;-77
2021/06/13 02:03:41;;;;;;;15.07;13.13;;;;;;;;;;4368746;32;20039;-76
2021/06/13 02:06:07;;;;;;;;;;;;;;;;;;4369737;32;20039;-77
2021/06/13 02:08:34;;;;;;;13.07;11.88;;;;;;;;;;4370171;32;20222;-77
2021/06/13 02:11:02;;;;;;;12.27;11.02;;;;;;;;;;4370980;32;20479;-76
2021/06/13 02:13:29;;;;;;;11.40;10.40;;;;;;;;;;4369246;32;20087;-77
2021/06/13 02:15:55;;;;;;;12.52;11.32;;;;;;;;;;4359212;32;20435;-77
2021/06/13 02:18:22;;;;;;;11.95;10.85;;;;;;;;;;4366800;32;20054;-76
2021/06/13 02:20:49;;;;;;;12.50;11.30;;;;;;;;;;4367491;32;20110;-76
2021/06/13 02:23:15;;;;;;;11.95;10.82;;;;;;;;;;4367383;32;20042;-76
2021/06/13 02:25:41;;;;;;;11.40;10.30;;;;;;;;;;4367082;32;20031;-77
2021/06/13 02:28:08;;;;;;;11.88;10.50;;;;;;;;;;4367116;32;20035;-77
2021/06/13 02:30:37;;;;;;;11.10;10.00;;;;;;;;;;4367157;32;20442;-76
2021/06/13 02:33:04;;;;;;;12.50;10.38;;;;;;;;;;4368315;32;20034;-76
2021/06/13 02:35:30;;;;;;;10.30;9.40;;;;;;;;;;4367177;32;20057;-75
2021/06/13 02:37:57;;;;;;;10.43;9.43;;;;;;;;;;4366291;32;20088;-76
2021/06/13 02:40:24;;;;;;;9.93;9.10;;;;;;;;;;4367238;32;20687;-76
2021/06/13 02:42:50;;;;;;;11.20;10.25;;;;;;;;;;4366960;32;20396;-76
2021/06/13 02:45:20;;;;;;;10.10;9.20;;;;;;;;;;4368580;32;20414;-76
2021/06/13 02:47:46;;;;;;;10.63;9.52;;;;;;;;;;4367053;32;20031;-76
2021/06/13 02:50:13;;;;;;;10.90;9.82;;;;;;;;;;4368061;32;20054;-77
2021/06/13 02:52:57;;;;;;;11.02;10.02;;;;;;;;;;4366388;32;20027;-76
2021/06/13 02:55:28;;;;;;;11.00;10.00;;;;;;;;;;4368482;32;20043;-76
2021/06/13 02:58:00;;;;;;;10.82;9.52;;;;;;;;;;4366883;32;20105;-76
2021/06/13 03:00:26;;;;;;;10.88;9.88;;;;;;;;;;4367987;32;20031;-76
2021/06/13 03:02:53;;;;;;;10.32;9.40;;;;;;;;;;4363974;32;20493;-76
2021/06/13 03:05:22;;;;;;;10.90;9.80;;;;;;;;;;4364732;32;20426;-76
2021/06/13 03:07:49;;;;;;;10.93;9.88;;;;;;;;;;4364549;32;20118;-76
2021/06/13 03:10:15;;;;;;;11.07;9.98;;;;;;;;;;4364775;32;20074;-76
2021/06/13 03:12:42;;;;;;;11.68;10.60;;;;;;;;;;4365223;32;20042;-76
2021/06/13 03:15:08;;;;;;;11.52;10.43;;;;;;;;;;4365984;32;20054;-77
2021/06/13 03:17:37;;;;;;;11.75;10.55;;;;;;;;;;4364036;32;20116;-78
2021/06/13 03:20:04;;;;;;;10.48;9.57;;;;;;;;;;4364141;32;20092;-76
2021/06/13 03:22:32;;;;;;;11.00;9.93;;;;;;;;;;4365830;32;20027;-76
2021/06/13 03:24:59;;;;;;;11.50;10.30;;;;;;;;;;4364807;32;20810;-76
2021/06/13 03:27:25;;;;;;;10.88;9.98;;;;;;;;;;4364047;32;20047;-77
2021/06/13 03:29:52;;;;;;;10.48;9.57;;;;;;;;;;4363631;32;20031;-76
2021/06/13 03:32:18;;;;;;;9.90;9.10;;;;;;;;;;4365442;32;20056;-75
2021/06/13 03:34:45;;;;;;;11.68;10.57;;;;;;;;;;4363913;32;20760;-76
2021/06/13 03:37:12;;;;;;;10.73;9.60;;;;;;;;;;4363986;32;20046;-75
2021/06/13 03:39:39;;;;;;;10.75;9.85;;;;;;;;;;4364144;32;20039;-76
2021/06/13 03:42:06;;;;;;;11.38;10.25;;;;;;;;;;4365266;32;20058;-75
2021/06/13 03:44:33;;;;;;;10.43;9.50;;;;;;;;;;4361217;32;20589;-76
2021/06/13 03:46:59;;;;;;;10.90;9.85;;;;;;;;;;4364070;32;20050;-76
2021/06/13 03:49:26;;;;;;;10.95;9.65;;;;;;;;;;4365367;32;20133;-76
2021/06/13 03:51:52;;;;;;;9.75;8.95;;;;;;;;;;4363896;32;20066;-77
2021/06/13 03:54:19;;;;;;;10.48;9.57;;;;;;;;;;4363853;32;20030;-75
2021/06/13 03:56:52;;;;;;;9.80;8.95;;;;;;;;;;4365104;32;20089;-77
2021/06/13 03:59:19;;;;;;;9.65;8.75;;;;;;;;;;4360222;32;20039;-76
2021/06/13 04:01:46;;;;;;;32.95;10.13;;;;;;;;;;4360090;32;20317;-76
2021/06/13 04:04:13;;;;;;;10.10;8.95;;;;;;;;;;4363097;32;20104;-76
2021/06/13 04:06:43;;;;;;;10.68;8.73;;;;;;;;;;4363972;32;20028;-75
2021/06/13 04:09:10;;;;;;;10.20;9.20;;;;;;;;;;4365044;32;20061;-76
2021/06/13 04:11:37;;;;;;;10.30;9.30;;;;;;;;;;4365006;32;20034;-76
2021/06/13 04:14:04;;;;;;;18.73;11.23;;;;;;;;;;4363943;32;20110;-76
2021/06/13 04:16:30;;;;;;;15.35;12.30;;;;;;;;;;4365388;32;20036;-77
2021/06/13 04:18:57;;;;;;;15.32;13.57;;;;;;;;;;4362860;32;20077;-77
2021/06/13 04:21:23;;;;;;;15.57;13.98;;;;;;;;;;4359386;32;20130;-75
2021/06/13 04:23:51;;;;;;;16.80;13.68;;;;;;;;;;4356843;32;20034;-76
2021/06/13 04:26:19;;;;;;;12.05;11.02;;;;;;;;;;4364846;32;20470;-77
2021/06/13 04:28:46;;;;;;;9.90;9.02;;;;;;;;;;4364366;32;20047;-76
2021/06/13 04:31:13;;;;;;;10.60;9.70;;;;;;;;;;4361793;32;20134;-75
2021/06/13 04:33:40;;;;;;;9.15;8.35;;;;;;;;;;4367768;32;20125;-76
2021/06/13 04:36:07;;;;;;;11.55;9.48;;;;;;;;;;4367338;32;20624;-76
2021/06/13 04:38:33;;;;;;;10.55;9.48;;;;;;;;;;4366075;32;20028;-76
2021/06/13 04:41:00;;;;;;;10.60;9.73;;;;;;;;;;4366423;32;20636;-76
2021/06/13 04:43:26;;;;;;;10.68;8.65;;;;;;;;;;4361409;32;20065;-75
2021/06/13 04:45:52;;;;;;;9.77;8.88;;;;;;;;;;4365022;32;20100;-76
2021/06/13 04:48:19;;;;;;;10.05;9.23;;;;;;;;;;4366096;32;20118;-76
2021/06/13 04:50:46;;;;;;;11.07;9.90;;;;;;;;;;4363060;32;20065;-76
2021/06/13 04:53:32;;;;;;;10.25;9.35;;;;;;;;;;4365099;32;20034;-74
2021/06/13 04:56:00;;;;;;;9.05;8.18;;;;;;;;;;4366229;32;20059;-75
2021/06/13 04:58:26;;;;;;;11.90;10.80;;;;;;;;;;4365404;32;20280;-75
2021/06/13 05:00:53;;;;;;;9.23;8.43;;;;;;;;;;4363529;32;20418;-75
2021/06/13 05:03:20;;;;;;;13.43;12.23;;;;;;;;;;4361720;32;20531;-75
2021/06/13 05:05:46;;;;;;;12.68;11.38;;;;;;;;;;4365902;32;20415;-75
2021/06/13 05:08:12;;;;;;;14.73;12.73;;;;;;;;;;4365534;32;20035;-75
2021/06/13 05:10:39;;;;;;;14.55;13.15;;;;;;;;;;4366894;32;20046;-75
2021/06/13 05:13:15;;;;;;;12.48;11.27;;;;;;;;;;4367480;32;20099;-75
2021/06/13 05:15:41;;;;;;;14.68;13.13;;;;;;;;;;4365884;32;20036;-75
2021/06/13 05:18:08;;;;;;;12.63;11.35;;;;;;;;;;4365457;32;20481;-76
2021/06/13 05:20:34;;;;;;;10.60;9.70;;;;;;;;;;4362340;32;20078;-75
2021/06/13 05:23:01;;;;;;;15.23;13.70;;;;;;;;;;4365704;32;20038;-75
2021/06/13 05:25:29;;;;;;;15.52;14.07;;;;;;;;;;4361223;32;20064;-75
2021/06/13 05:27:56;;;;;;;14.68;13.27;;;;;;;;;;4363059;32;20485;-76
2021/06/13 05:30:24;;;;;;;14.80;13.43;;;;;;;;;;4365722;32;20555;-75
2021/06/13 05:32:50;;;;;;;15.60;13.82;;;;;;;;;;4365420;32;20232;-75
2021/06/13 05:35:17;;;;;;;15.57;13.05;;;;;;;;;;4366560;32;20052;-75
2021/06/13 05:37:43;;;;;;;13.23;11.90;;;;;;;;;;4365791;32;20035;-76
2021/06/13 05:40:11;;;;;;;16.30;14.70;;;;;;;;;;4362802;32;20089;-75
2021/06/13 05:42:37;;;;;;;15.52;14.13;;;;;;;;;;4358812;32;20038;-75
2021/06/13 05:45:05;;;;;;;15.85;13.30;;;;;;;;;;4366674;32;20085;-75
2021/06/13 05:47:31;;;;;;;12.52;11.40;;;;;;;;;;4364055;32;20089;-75
2021/06/13 05:49:57;;;;;;;14.20;12.88;;;;;;;;;;4366094;32;20084;-75
2021/06/13 05:52:23;;;;;;;11.18;10.18;;;;;;;;;;4366781;32;20038;-75
2021/06/13 05:54:49;;;;;;;12.10;10.85;;;;;;;;;;4361623;32;20086;-75
2021/06/13 05:57:16;;;;;;;12.65;11.07;;;;;;;;;;4364830;32;20468;-75
2021/06/13 05:59:42;;;;;;;11.40;10.30;;;;;;;;;;4366749;32;20039;-76
2021/06/13 06:02:08;;;;;;;10.18;9.38;;;;;;;;;;4366042;32;20639;-75
2021/06/13 06:04:34;;;;;;;12.82;11.73;;;;;;;;;;4364929;32;20097;-75
2021/06/13 06:07:00;;;;;;;12.05;10.75;;;;;;;;;;4365382;32;20042;-75
2021/06/13 06:09:26;;;;;;;11.95;10.80;;;;;;;;;;4365083;32;20039;-75
2021/06/13 06:11:53;;;;;;;10.90;9.85;;;;;;;;;;4365046;32;20292;-75
2021/06/13 06:14:19;;;;;;;11.55;9.68;;;;;;;;;;4364725;32;20066;-75
2021/06/13 06:16:45;;;;;;;9.25;8.45;;;;;;;;;;4365024;32;20098;-75
2021/06/13 06:19:11;;;;;;;11.55;9.32;;;;;;;;;;4365022;32;20073;-75
2021/06/13 06:21:38;;;;;;;13.95;10.05;;;;;;;;;;4365423;32;20042;-75
2021/06/13 06:24:04;;;;;;;10.60;9.70;;;;;;;;;;4364834;32;20273;-76
2021/06/13 06:26:31;;;;;;;9.35;8.43;;;;;;;;;;4365266;32;20039;-76
2021/06/13 06:28:57;;;;;;;9.20;8.30;;;;;;;;;;4365008;32;20050;-76
2021/06/13 06:31:23;;;;;;;11.20;9.13;;;;;;;;;;4364944;32;20058;-75
2021/06/13 06:33:49;;;;;;;13.30;9.75;;;;;;;;;;4363626;32;20043;-75
2021/06/13 06:36:15;;;;;;;8.52;7.72;;;;;;;;;;4364301;32;20040;-75
2021/06/13 06:38:41;;;;;;;10.57;9.68;;;;;;;;;;4365027;32;20058;-75
2021/06/13 06:41:08;;;;;;;9.10;8.40;;;;;;;;;;4364114;32;20080;-75
2021/06/13 06:43:34;;;;;;;9.45;8.65;;;;;;;;;;4364261;32;20047;-80
2021/06/13 06:46:00;;;;;;;10.57;9.57;;;;;;;;;;4365234;32;20092;-81
2021/06/13 06:48:26;;;;;;;10.23;9.27;;;;;;;;;;4364797;32;20474;-81
2021/06/13 06:50:52;;;;;;;9.20;8.40;;;;;;;;;;4361996;32;20066;-91
2021/06/13 06:53:18;;;;;;;9.07;8.27;;;;;;;;;;4361624;32;20042;-78
2021/06/13 06:55:45;;;;;;;8.98;8.18;;;;;;;;;;4363216;32;20170;-78
2021/06/13 06:58:11;;;;;;;10.25;9.25;;;;;;;;;;4364368;32;20040;-76
2021/06/13 07:00:37;;;;;;;8.73;8.00;;;;;;;;;;4365314;32;20106;-79
2021/06/13 07:03:07;;;;;;;9.63;8.73;;;;;;;;;;4363623;32;20077;-78
2021/06/13 07:05:33;;;;;;;9.32;8.52;;;;;;;;;;4362225;32;20406;-77
2021/06/13 07:07:59;;;;;;;9.93;8.13;;;;;;;;;;4356208;32;20513;-77
2021/06/13 07:10:25;;;;;;;7.97;7.15;;;;;;;;;;4359669;32;20042;-77
2021/06/13 07:12:51;;;;;;;9.02;8.13;;;;;;;;;;4364767;32;20145;-78
2021/06/13 07:15:19;;;;;;;9.15;8.35;;;;;;;;;;4363382;32;20035;-78
2021/06/13 07:17:45;;;;;;;8.90;8.10;;;;;;;;;;4358539;32;20441;-78
2021/06/13 07:20:12;;;;;;;9.52;8.20;;;;;;;;;;4362724;32;20101;-78
2021/06/13 07:22:39;;;;;;;8.98;8.23;;;;;;;;;;4363021;32;20435;-78
2021/06/13 07:25:06;;;;;;;9.00;8.10;;;;;;;;;;4363810;32;20483;-78
2021/06/13 07:27:33;;;;;;;7.60;6.93;;;;;;;;;;4364323;32;20055;-80
2021/06/13 07:29:59;;;;;;;7.32;6.62;;;;;;;;;;4362874;32;20407;-82
2021/06/13 07:32:25;;;;;;;8.60;7.72;;;;;;;;;;4363827;32;20137;-78
2021/06/13 07:34:52;;;;;;;7.57;6.82;;;;;;;;;;4365341;32;20062;-78
2021/06/13 07:37:18;;;;;;;6.90;6.30;;;;;;;;;;4359759;32;20124;-80
2021/06/13 07:39:44;;;;;;;9.07;8.18;;;;;;;;;;4358193;32;20080;-80
2021/06/13 07:42:11;;;;;;;8.52;7.72;;;;;;;;;;4360704;32;20043;-79
2021/06/13 07:44:37;;;;;;;8.20;7.53;;;;;;;;;;4360212;32;20039;-80
2021/06/13 07:47:03;;;;;;;9.88;8.25;;;;;;;;;;4362690;32;20465;-80
2021/06/13 07:49:29;;;;;;;8.80;7.72;;;;;;;;;;4361994;32;20403;-79
2021/06/13 07:51:58;;;;;;;7.37;6.68;;;;;;;;;;4359907;32;20040;-79
2021/06/13 07:54:24;;;;;;;7.78;7.07;;;;;;;;;;4361885;32;20073;-79
2021/06/13 07:56:50;;;;;;;9.65;8.73;;;;;;;;;;4360935;32;20051;-80
2021/06/13 07:59:16;;;;;;;9.45;8.50;;;;;;;;;;4359441;32;20428;-80
2021/06/13 08:01:42;;;;;;;7.95;7.25;;;;;;;;;;4360487;32;20542;-80
2021/06/13 08:04:09;;;;;;;11.07;8.73;;;;;;;;;;4361055;32;20140;-79
2021/06/13 08:06:35;;;;;;;8.30;7.50;;;;;;;;;;4360484;32;20097;-79
2021/06/13 08:09:01;;;;;;;9.38;8.27;;;;;;;;;;4363345;32;20073;-79
2021/06/13 08:11:29;;;;;;;9.30;8.40;;;;;;;;;;4361238;32;20485;-79
2021/06/13 08:13:56;;;;;;;9.00;8.20;;;;;;;;;;4365570;32;20043;-80
2021/06/13 08:16:22;;;;;;;8.90;8.00;;;;;;;;;;4364366;32;20777;-80
2021/06/13 08:18:48;;;;;;;11.20;8.43;;;;;;;;;;4362230;32;20546;-80
2021/06/13 08:21:15;;;;;;;8.00;7.30;;;;;;;;;;4364057;32;20055;-80
2021/06/13 08:23:41;;;;;;;8.43;7.62;;;;;;;;;;4365658;32;20034;-80
2021/06/13 08:26:07;;;;;;;8.85;8.07;;;;;;;;;;4363510;32;20038;-80
2021/06/13 08:28:34;;;;;;;8.73;8.00;;;;;;;;;;4365705;32;20387;-80
2021/06/13 08:31:00;;;;;;;9.30;8.35;;;;;;;;;;4362204;32;20078;-80
2021/06/13 08:33:26;;;;;;;7.72;6.93;;;;;;;;;;4365238;32;20043;-80
2021/06/13 08:35:52;;;;;;;7.53;6.93;;;;;;;;;;4365337;32;20042;-79
2021/06/13 08:38:21;;;;;;;8.77;8.02;;;;;;;;;;4363903;32;20359;-79
2021/06/13 08:40:48;;;;;;;9.95;8.57;;;;;;;;;;4365209;32;20514;-80
2021/06/13 08:43:15;;;;;;;10.20;9.18;;;;;;;;;;4363444;32;20474;-79
2021/06/13 08:45:41;;;;;;;9.05;8.32;;;;;;;;;;4362164;32;20097;-80
2021/06/13 08:48:08;;;;;;;9.02;8.32;;;;;;;;;;4360660;32;20043;-75
2021/06/13 08:50:35;;;;;;;9.63;8.63;;;;;;;;;;4363796;32;20066;-79
2021/06/13 08:53:02;;;;;;;8.55;7.75;;;;;;;;;;4364235;32;20414;-78
2021/06/13 08:55:30;;;;;;;8.13;7.43;;;;;;;;;;4364047;32;20711;-79
2021/06/13 08:57:56;;;;;;;8.90;8.18;;;;;;;;;;4365809;32;20051;-82
2021/06/13 09:00:30;;;;;;;8.45;7.72;;;;;;;;;;4365969;32;20077;-79
2021/06/13 09:02:57;;;;;;;9.48;8.38;;;;;;;;;;4365015;32;20093;-83
2021/06/13 09:05:24;;;;;;;8.30;7.70;;;;;;;;;;4377549;32;20065;-90
2021/06/13 09:07:58;;;;;;;6.90;6.40;;;;;;;;;;4366770;32;20047;-79
2021/06/13 09:10:26;;;;;;;8.38;7.62;;;;;;;;;;4365099;32;20058;-80
2021/06/13 09:12:54;;;;;;;8.70;7.90;;;;;;;;;;4362267;32;20122;-79
2021/06/13 09:15:35;;;;;;;8.35;7.65;;;;;;;;;;4365063;32;20113;-80
2021/06/13 09:18:01;;;;;;;7.32;6.72;;;;;;;;;;4363564;32;20081;-79
2021/06/13 09:20:28;;;;;;;7.35;6.75;;;;;;;;;;4364039;32;20474;-78
2021/06/13 09:23:05;;;;;;;9.75;7.30;;;;;;;;;;4363174;32;20043;-79
2021/06/13 09:25:31;;;;;;;11.75;9.27;;;;;;;;;;4367940;32;20042;-80
2021/06/13 09:28:05;;;;;;;9.38;8.60;;;;;;;;;;4362912;32;20143;-81
2021/06/13 09:30:32;;;;;;;8.02;7.32;;;;;;;;;;4362983;32;20070;-80
2021/06/13 09:33:03;;;;;;;7.93;7.22;;;;;;;;;;4364176;32;20125;-80
2021/06/13 09:35:30;;;;;;;8.48;7.75;;;;;;;;;;4363463;32;20043;-80
2021/06/13 09:38:11;;;;;;;8.27;7.50;;;;;;;;;;4364195;32;20394;-80
2021/06/13 09:40:38;;;;;;;8.32;7.53;;;;;;;;;;4364851;32;20039;-80
2021/06/13 09:43:11;;;;;;;7.50;6.80;;;;;;;;;;4360416;32;20066;-80
2021/06/13 09:45:38;;;;;;;8.65;7.75;;;;;;;;;;4362417;32;20375;-79
2021/06/13 09:48:04;;;;;;;8.52;7.37;;;;;;;;;;4360881;32;20038;-80
2021/06/13 09:50:44;;;;;;;9.25;8.10;;;;;;;;;;4361361;32;20070;-80
2021/06/13 09:53:44;;;;;;;7.05;6.47;;;;;;;;;;4375223;32;20098;-81
2021/06/13 09:56:21;;;;;;;7.72;7.00;;;;;;;;;;4357243;32;20026;-81
2021/06/13 09:58:49;;;;;;;9.20;8.25;;;;;;;;;;4362491;32;20031;-81
2021/06/13 10:01:15;;;;;;;8.13;7.05;;;;;;;;;;4362866;32;20116;-79
2021/06/13 10:03:46;;;;;;;9.20;8.15;;;;;;;;;;4364361;32;20047;-79
2021/06/13 10:06:12;;;;;;;7.80;7.10;;;;;;;;;;4364796;32;20491;-79
2021/06/13 10:08:39;;;;;;;9.32;8.10;;;;;;;;;;4364503;32;20426;-80
2021/06/13 10:11:37;;;;;;;7.55;6.95;;;;;;;;;;4361332;32;20046;-85
2021/06/13 10:17:16;;;;;;;8.32;7.53;;;;;;;;;;4355328;32;20068;-82
2021/06/13 10:19:44;;;;;;;8.60;7.90;;;;;;;;;;4362974;32;20072;-81
2021/06/13 10:22:16;;;;;;;9.07;6.60;;;;;;;;;;4363054;32;20758;-82
2021/06/13 10:24:43;;;;;;;8.27;7.47;;;;;;;;;;4362871;32;20185;-81
2021/06/13 10:27:11;;;;;;;6.90;6.30;;;;;;;;;;4361413;32;20046;-81
2021/06/13 10:30:03;;;;;;;7.20;6.45;;;;;;;;;;4359759;32;20222;-82
2021/06/13 10:32:48;;;;;;;7.30;6.70;;;;;;;;;;4371772;32;20579;-82
2021/06/13 10:35:14;;;;;;;6.85;6.25;;;;;;;;;;4354215;32;20039;-82
2021/06/13 10:38:09;;;;;;;7.57;6.87;;;;;;;;;;4360971;32;20430;-82
2021/06/13 10:40:41;;;;;;;6.70;6.10;;;;;;;;;;4361637;32;20066;-82
2021/06/13 10:43:09;;;;;;;8.27;7.43;;;;;;;;;;4362128;32;20092;-82
2021/06/13 10:45:36;;;;;;;9.57;7.53;;;;;;;;;;4360038;32;20092;-80
2021/06/13 10:48:06;;;;;;;7.28;6.57;;;;;;;;;;4363948;32;20498;-81
2021/06/13 10:50:39;;;;;;;7.15;6.45;;;;;;;;;;4362150;32;20051;-82
2021/06/13 10:53:10;;;;;;;12.37;7.50;;;;;;;;;;4362666;32;20088;-84
2021/06/13 10:55:46;;;;;;;12.75;8.45;;;;;;;;;;4364467;32;20072;-80
2021/06/13 10:58:42;;;;;;;15.25;9.40;;;;;;;;;;4361835;32;20058;-88
2021/06/13 11:01:29;;;;;;;22.15;10.32;;;;;;;;;;4362229;32;20257;-81
2021/06/13 11:04:01;;;;;;;9.98;7.93;;;;;;;;;;4362973;32;20474;-80
2021/06/13 11:06:39;;;;;;;8.18;7.47;;;;;;;;;;4363581;32;20187;-77
2021/06/13 11:09:06;;;;;;;8.68;7.87;;;;;;;;;;4362380;32;20096;-84
2021/06/13 11:11:36;;;;;;;8.07;7.22;;;;;;;;;;4359554;32;20113;-80
2021/06/13 11:14:24;;;;;;;8.48;7.78;;;;;;;;;;4362064;32;20030;-77
2021/06/13 11:16:54;;;;;;;9.15;8.35;;;;;;;;;;4362740;32;20423;-77
2021/06/13 11:19:24;;;;;;;8.13;7.15;;;;;;;;;;4363766;32;20050;-77
2021/06/13 11:21:50;;;;;;;9.00;8.13;;;;;;;;;;4360059;32;20039;-77
2021/06/13 11:24:36;;;;;;;10.05;7.03;;;;;;;;;;4359634;32;20068;-77
2021/06/13 11:27:04;;;;;;;11.02;7.72;;;;;;;;;;4364360;32;20085;-86
2021/06/13 11:29:53;;;;;;;9.90;8.10;;;;;;;;;;4363914;32;20065;-77
2021/06/13 11:32:39;;;;;;;8.48;7.78;;;;;;;;;;4361896;32;20046;-78
2021/06/13 11:35:23;;;;;;;8.95;8.05;;;;;;;;;;4363087;32;20320;-77
2021/06/13 11:38:09;;;;;;;7.65;7.03;;;;;;;;;;4363462;32;20801;-77
2021/06/13 11:40:37;;;;;;;7.28;6.65;;;;;;;;;;4363394;32;20077;-77
2021/06/13 11:43:10;;;;;;;9.02;7.65;;;;;;;;;;4366478;32;20046;-77
2021/06/13 11:45:36;;;;;;;8.38;7.57;;;;;;;;;;4366355;32;20032;-82
2021/06/13 11:48:22;;;;;;;8.00;7.30;;;;;;;;;;4366522;32;20049;-77
2021/06/13 11:51:01;;;;;;;7.47;6.78;;;;;;;;;;4376802;32;20089;-77
2021/06/13 11:53:46;;;;;;;7.82;7.12;;;;;;;;;;4365699;32;20031;-77
2021/06/13 11:56:33;;;;;;;7.60;7.00;;;;;;;;;;4365079;32;20072;-77
2021/06/13 11:59:02;;;;;;;7.53;6.82;;;;;;;;;;4356537;32;20431;-77
2021/06/13 12:01:28;;;;;;;7.95;6.68;;;;;;;;;;4365974;32;20062;-78
2021/06/13 12:03:56;;;;;;;7.57;6.87;;;;;;;;;;4361212;32;20070;-77
2021/06/13 12:06:23;;;;;;;7.37;6.18;;;;;;;;;;4359658;32;20059;-78
2021/06/13 12:08:50;;;;;;;7.97;7.25;;;;;;;;;;4365829;32;20058;-77
2021/06/13 12:11:33;;;;;;;7.65;6.95;;;;;;;;;;4361913;32;20416;-77
2021/06/13 12:14:15;;;;;;;7.28;6.68;;;;;;;;;;4360867;32;20426;-77
2021/06/13 12:16:42;;;;;;;8.32;7.10;;;;;;;;;;4366220;32;20051;-76
2021/06/13 12:19:08;;;;;;;7.07;6.32;;;;;;;;;;4365710;32;20062;-77
2021/06/13 12:46:46;;;;;;;;;;;;;;;;;;;;;
2021/06/13 12:50:05;;;;;;;;;;;;;;;;;;;;;
2021/06/13 14:02:18;;;;;;;;;;;;;;;;;;;;;
2021/06/13 14:11:03;;;;;;;5.50;5.00;;;;;;;;;;4241734;33;20036;-80
2021/06/13 14:13:29;;;;;;;4.72;4.32;;;;;;;;;;4345899;32;20531;-76
2021/06/13 14:15:56;;;;;;;5.00;4.53;;;;;;;;;;4363287;32;20035;-77
2021/06/13 14:18:22;;;;;;;7.25;5.25;;;;;;;;;;4359433;32;20031;-77
2021/06/13 14:20:48;;;;;;;4.85;4.45;;;;;;;;;;4367430;32;20027;-76
2021/06/13 14:23:14;;;;;;;4.80;4.40;;;;;;;;;;4355612;32;20324;-76
2021/06/13 14:25:40;;;;;;;5.35;4.37;;;;;;;;;;4359770;32;20038;-76
2021/06/13 14:28:08;;;;;;;3.87;3.58;;;;;;;;;;4350543;32;20027;-77
2021/06/13 14:30:34;;;;;;;5.72;4.53;;;;;;;;;;4347733;32;20230;-82
2021/06/13 14:33:00;;;;;;;5.53;4.85;;;;;;;;;;4360179;32;20080;-77
2021/06/13 14:35:27;;;;;;;4.20;3.90;;;;;;;;;;4360422;32;20389;-78
2021/06/13 14:37:53;;;;;;;4.05;3.75;;;;;;;;;;4359303;32;20054;-76
2021/06/13 14:40:19;;;;;;;5.43;4.93;;;;;;;;;;4359411;32;20049;-80
2021/06/13 14:42:46;;;;;;;4.97;4.50;;;;;;;;;;4341548;32;20429;-78
2021/06/13 14:45:17;;;;;;;3.90;3.60;;;;;;;;;;4362415;32;20027;-79
2021/06/13 14:47:44;;;;;;;5.07;3.80;;;;;;;;;;4345514;32;20071;-78
2021/06/13 14:50:11;;;;;;;5.12;4.70;;;;;;;;;;4356126;32;20474;-78
2021/06/13 14:52:39;;;;;;;4.53;4.12;;;;;;;;;;4345463;32;20483;-77
2021/06/13 14:55:05;;;;;;;7.62;4.93;;;;;;;;;;4350643;32;151214;-77
2021/06/13 14:57:31;;;;;;;11.48;5.15;;;;;;;;;;4350654;32;20039;-77
2021/06/13 14:59:57;;;;;;;6.43;5.82;;;;;;;;;;4362170;32;20112;-77
2021/06/13 15:02:23;;;;;;;5.10;4.60;;;;;;;;;;4363695;32;20523;-77
2021/06/13 15:04:50;;;;;;;7.37;4.43;;;;;;;;;;4363268;32;20054;-76
2021/06/13 15:07:16;;;;;;;3.87;3.58;;;;;;;;;;4364193;32;20050;-77
2021/06/13 15:09:42;;;;;;;4.82;4.43;;;;;;;;;;4363860;32;20137;-76
2021/06/13 15:12:08;;;;;;;5.22;4.60;;;;;;;;;;4361236;32;20065;-77
2021/06/13 15:14:35;;;;;;;6.20;5.12;;;;;;;;;;4365170;32;20092;-77
2021/06/13 15:17:02;;;;;;;4.37;3.97;;;;;;;;;;4365040;32;20030;-77
2021/06/13 15:19:29;;;;;;;5.25;4.60;;;;;;;;;;4365106;32;20027;-77
2021/06/13 15:21:55;;;;;;;5.00;4.40;;;;;;;;;;4364857;32;20390;-77
2021/06/13 15:24:21;;;;;;;5.03;4.40;;;;;;;;;;4364730;32;20039;-76
2021/06/13 15:26:48;;;;;;;4.82;4.25;;;;;;;;;;4364182;32;20255;-77
2021/06/13 15:29:14;;;;;;;4.53;4.10;;;;;;;;;;4363845;32;20112;-77
2021/06/13 15:31:40;;;;;;;8.95;4.47;;;;;;;;;;4364867;32;20435;-77
2021/06/13 15:34:10;;;;;;;4.85;4.35;;;;;;;;;;4363912;32;20491;-77
2021/06/13 15:36:36;;;;;;;6.80;4.75;;;;;;;;;;4365139;32;20073;-77
2021/06/13 15:39:04;;;;;;;3.78;3.47;;;;;;;;;;4362995;32;20591;-77
2021/06/13 15:41:30;;;;;;;4.80;4.35;;;;;;;;;;4365102;32;20039;-77
2021/06/13 15:43:56;;;;;;;6.57;4.85;;;;;;;;;;4365001;32;20070;-77
2021/06/13 15:46:23;;;;;;;5.82;5.15;;;;;;;;;;4363153;32;20088;-77
2021/06/13 15:48:50;;;;;;;6.35;5.00;;;;;;;;;;4362251;32;20061;-77
2021/06/13 15:51:16;;;;;;;5.07;4.68;;;;;;;;;;4363365;32;20058;-77
2021/06/13 15:53:52;;;;;;;6.05;4.37;;;;;;;;;;4364315;32;20035;-77
2021/06/13 15:56:19;;;;;;;5.22;4.75;;;;;;;;;;4363101;32;20046;-77
2021/06/13 15:58:48;;;;;;;4.32;4.03;;;;;;;;;;4364003;32;20043;-77
2021/06/13 16:01:14;;;;;;;5.40;4.82;;;;;;;;;;4364253;32;20062;-77
2021/06/13 16:03:41;;;;;;;5.62;5.12;;;;;;;;;;4363236;32;20406;-76
2021/06/13 16:06:07;;;;;;;5.30;4.90;;;;;;;;;;4362142;32;20042;-76
2021/06/13 16:08:33;;;;;;;6.97;4.95;;;;;;;;;;4364876;32;20061;-77
2021/06/13 16:11:00;;;;;;;4.97;4.43;;;;;;;;;;4362557;32;20493;-76
2021/06/13 16:13:26;;;;;;;5.85;5.28;;;;;;;;;;4356059;32;20058;-77
2021/06/13 16:15:52;;;;;;;5.68;5.18;;;;;;;;;;4363249;32;20422;-77
2021/06/13 16:18:19;;;;;;;6.07;4.32;;;;;;;;;;4363527;32;20077;-77
2021/06/13 16:20:45;;;;;;;6.78;6.10;;;;;;;;;;4363866;32;20131;-77
2021/06/13 16:23:11;;;;;;;6.05;5.45;;;;;;;;;;4363399;32;20027;-77
2021/06/13 16:25:37;;;;;;;9.93;5.80;;;;;;;;;;4362076;32;20088;-77
2021/06/13 16:28:04;;;;;;;5.82;5.03;;;;;;;;;;4367149;32;20070;-77
2021/06/13 16:30:30;;;;;;;5.35;4.90;;;;;;;;;;4366148;32;20035;-76